sensor_id;sensor_type;location;lat;lon;timestamp;pressure;altitude;pressure_sealevel;temperature;humidity
22440;BME280;11387;51.612;7.210;2022-12-18T00:02:01;102034.25;;;-8.98;89.19
22440;BME280;11387;51.612;7.210;2022-12-18T00:04:30;102027.72;;;-8.94;88.75
22440;BME280;11387;51.612;7.210;2022-12-18T00:06:59;102031.91;;;-8.92;88.76
22440;BME280;11387;51.612;7.210;2022-12-18T00:09:27;102034.56;;;-8.92;89.25
22440;BME280;11387;51.612;7.210;2022-12-18T00:12:06;102041.09;;;-8.96;89.48
22440;BME280;11387;51.612;7.210;2022-12-18T00:14:43;102037.19;;;-9.01;89.22
22440;BME280;11387;51.612;7.210;2022-12-18T00:17:11;102044.03;;;-8.99;89.17
22440;BME280;11387;51.612;7.210;2022-12-18T00:19:39;102041.34;;;-9.08;89.40
22440;BME280;11387;51.612;7.210;2022-12-18T00:22:08;102037.72;;;-9.07;89.21
22440;BME280;11387;51.612;7.210;2022-12-18T00:24:36;102046.66;;;-9.08;89.59
22440;BME280;11387;51.612;7.210;2022-12-18T00:27:04;102037.00;;;-9.09;88.95
22440;BME280;11387;51.612;7.210;2022-12-18T00:29:33;102023.06;;;-9.11;89.46
22440;BME280;11387;51.612;7.210;2022-12-18T00:32:02;102016.78;;;-9.10;89.70
22440;BME280;11387;51.612;7.210;2022-12-18T00:34:31;102020.56;;;-9.03;89.12
22440;BME280;11387;51.612;7.210;2022-12-18T00:36:59;102023.69;;;-8.89;89.16
22440;BME280;11387;51.612;7.210;2022-12-18T00:39:27;102026.03;;;-8.95;89.03
22440;BME280;11387;51.612;7.210;2022-12-18T00:41:55;102033.25;;;-9.07;88.95
22440;BME280;11387;51.612;7.210;2022-12-18T00:44:41;102033.56;;;-9.00;89.31
22440;BME280;11387;51.612;7.210;2022-12-18T00:47:11;102042.06;;;-9.06;89.44
22440;BME280;11387;51.612;7.210;2022-12-18T00:49:39;102039.69;;;-9.00;89.48
22440;BME280;11387;51.612;7.210;2022-12-18T00:52:08;102035.94;;;-8.97;89.46
22440;BME280;11387;51.612;7.210;2022-12-18T00:54:36;102047.78;;;-9.01;89.67
22440;BME280;11387;51.612;7.210;2022-12-18T00:57:05;102039.53;;;-9.08;89.43
22440;BME280;11387;51.612;7.210;2022-12-18T00:59:33;102049.19;;;-8.97;89.61
22440;BME280;11387;51.612;7.210;2022-12-18T01:02:01;102037.19;;;-9.01;89.87
22440;BME280;11387;51.612;7.210;2022-12-18T01:04:32;102040.00;;;-8.93;90.52
22440;BME280;11387;51.612;7.210;2022-12-18T01:07:00;102034.69;;;-8.93;90.25
22440;BME280;11387;51.612;7.210;2022-12-18T01:09:28;102030.63;;;-8.97;89.81
22440;BME280;11387;51.612;7.210;2022-12-18T01:11:57;102042.50;;;-8.92;90.30
22440;BME280;11387;51.612;7.210;2022-12-18T01:14:25;102039.28;;;-8.95;90.06
22440;BME280;11387;51.612;7.210;2022-12-18T01:16:53;102045.00;;;-9.00;90.11
22440;BME280;11387;51.612;7.210;2022-12-18T01:19:22;102030.75;;;-9.08;90.30
22440;BME280;11387;51.612;7.210;2022-12-18T01:21:52;102028.25;;;-9.00;90.34
22440;BME280;11387;51.612;7.210;2022-12-18T01:24:20;102030.19;;;-9.02;90.85
22440;BME280;11387;51.612;7.210;2022-12-18T01:26:50;102029.78;;;-9.07;90.65
22440;BME280;11387;51.612;7.210;2022-12-18T01:29:18;102031.75;;;-9.00;90.53
22440;BME280;11387;51.612;7.210;2022-12-18T01:31:47;102041.09;;;-8.86;90.32
22440;BME280;11387;51.612;7.210;2022-12-18T01:34:15;102045.03;;;-8.90;90.41
22440;BME280;11387;51.612;7.210;2022-12-18T01:36:43;102037.63;;;-8.96;90.37
22440;BME280;11387;51.612;7.210;2022-12-18T01:39:13;102035.81;;;-8.96;90.46
22440;BME280;11387;51.612;7.210;2022-12-18T01:41:42;102025.88;;;-9.03;90.31
22440;BME280;11387;51.612;7.210;2022-12-18T01:47:15;102030.88;;;-9.20;90.44
22440;BME280;11387;51.612;7.210;2022-12-18T01:49:44;102036.03;;;-9.18;90.87
22440;BME280;11387;51.612;7.210;2022-12-18T01:52:12;102032.69;;;-9.10;91.05
22440;BME280;11387;51.612;7.210;2022-12-18T01:54:42;102027.38;;;-9.10;90.53
22440;BME280;11387;51.612;7.210;2022-12-18T01:57:11;102029.06;;;-9.09;91.33
22440;BME280;11387;51.612;7.210;2022-12-18T01:59:40;102011.91;;;-9.05;91.21
22440;BME280;11387;51.612;7.210;2022-12-18T02:02:09;102013.88;;;-8.98;90.95
22440;BME280;11387;51.612;7.210;2022-12-18T02:04:37;102018.09;;;-8.95;91.26
22440;BME280;11387;51.612;7.210;2022-12-18T02:07:21;102019.06;;;-8.96;90.64
22440;BME280;11387;51.612;7.210;2022-12-18T02:09:54;102015.53;;;-9.06;90.74
22440;BME280;11387;51.612;7.210;2022-12-18T02:12:27;102011.22;;;-9.07;91.01
22440;BME280;11387;51.612;7.210;2022-12-18T02:14:58;102016.78;;;-9.10;90.72
22440;BME280;11387;51.612;7.210;2022-12-18T02:17:28;102018.72;;;-9.12;90.83
22440;BME280;11387;51.612;7.210;2022-12-18T02:20:02;102014.41;;;-9.13;91.35
22440;BME280;11387;51.612;7.210;2022-12-18T02:22:35;102017.88;;;-9.13;91.03
22440;BME280;11387;51.612;7.210;2022-12-18T02:25:15;102012.88;;;-9.06;90.57
22440;BME280;11387;51.612;7.210;2022-12-18T02:27:48;102001.59;;;-9.08;90.92
22440;BME280;11387;51.612;7.210;2022-12-18T02:30:18;101992.09;;;-9.01;90.69
22440;BME280;11387;51.612;7.210;2022-12-18T02:32:47;101994.47;;;-9.18;90.79
22440;BME280;11387;51.612;7.210;2022-12-18T02:35:19;102002.56;;;-9.19;90.60
22440;BME280;11387;51.612;7.210;2022-12-18T02:37:48;101997.13;;;-9.08;90.53
22440;BME280;11387;51.612;7.210;2022-12-18T02:40:17;102004.94;;;-9.06;90.92
22440;BME280;11387;51.612;7.210;2022-12-18T02:42:46;102020.41;;;-9.11;91.48
22440;BME280;11387;51.612;7.210;2022-12-18T02:45:16;102005.91;;;-9.07;91.06
22440;BME280;11387;51.612;7.210;2022-12-18T02:47:46;102003.25;;;-9.07;91.21
22440;BME280;11387;51.612;7.210;2022-12-18T02:50:17;102003.13;;;-9.06;90.90
22440;BME280;11387;51.612;7.210;2022-12-18T02:52:49;102009.69;;;-9.00;91.05
22440;BME280;11387;51.612;7.210;2022-12-18T02:55:23;102002.88;;;-8.93;90.81
22440;BME280;11387;51.612;7.210;2022-12-18T02:57:55;102011.81;;;-8.94;90.91
22440;BME280;11387;51.612;7.210;2022-12-18T03:00:28;102024.50;;;-8.88;90.89
22440;BME280;11387;51.612;7.210;2022-12-18T03:02:59;102023.25;;;-8.94;90.53
22440;BME280;11387;51.612;7.210;2022-12-18T03:05:33;102017.38;;;-8.97;90.35
22440;BME280;11387;51.612;7.210;2022-12-18T03:08:06;102007.63;;;-8.97;90.97
22440;BME280;11387;51.612;7.210;2022-12-18T03:10:37;102010.13;;;-8.95;90.75
22440;BME280;11387;51.612;7.210;2022-12-18T03:13:08;102003.69;;;-9.02;90.73
22440;BME280;11387;51.612;7.210;2022-12-18T03:15:40;101999.91;;;-9.09;90.66
22440;BME280;11387;51.612;7.210;2022-12-18T03:18:12;102011.47;;;-9.10;90.17
22440;BME280;11387;51.612;7.210;2022-12-18T03:20:41;102008.41;;;-9.15;90.52
22440;BME280;11387;51.612;7.210;2022-12-18T03:23:13;102018.03;;;-9.14;90.57
22440;BME280;11387;51.612;7.210;2022-12-18T03:25:44;102007.59;;;-9.06;90.56
22440;BME280;11387;51.612;7.210;2022-12-18T03:28:14;102006.19;;;-9.10;90.97
22440;BME280;11387;51.612;7.210;2022-12-18T03:30:46;101994.88;;;-9.12;90.40
22440;BME280;11387;51.612;7.210;2022-12-18T03:33:16;101990.28;;;-9.10;90.43
22440;BME280;11387;51.612;7.210;2022-12-18T03:35:46;101988.59;;;-9.21;91.05
22440;BME280;11387;51.612;7.210;2022-12-18T03:38:15;101982.19;;;-9.19;90.53
22440;BME280;11387;51.612;7.210;2022-12-18T03:40:45;101985.81;;;-9.20;90.91
22440;BME280;11387;51.612;7.210;2022-12-18T03:43:16;101979.09;;;-9.14;91.18
22440;BME280;11387;51.612;7.210;2022-12-18T03:45:50;101980.91;;;-9.14;91.25
22440;BME280;11387;51.612;7.210;2022-12-18T03:48:23;101983.56;;;-9.14;91.10
22440;BME280;11387;51.612;7.210;2022-12-18T03:50:56;101991.94;;;-9.09;91.39
22440;BME280;11387;51.612;7.210;2022-12-18T03:53:27;101991.69;;;-9.06;91.25
22440;BME280;11387;51.612;7.210;2022-12-18T03:55:58;101985.13;;;-9.02;91.29
22440;BME280;11387;51.612;7.210;2022-12-18T03:58:27;101986.66;;;-9.09;91.11
22440;BME280;11387;51.612;7.210;2022-12-18T04:00:59;101990.28;;;-9.10;91.40
22440;BME280;11387;51.612;7.210;2022-12-18T04:03:29;101988.59;;;-9.11;91.22
22440;BME280;11387;51.612;7.210;2022-12-18T04:05:59;102003.94;;;-9.15;91.49
22440;BME280;11387;51.612;7.210;2022-12-18T04:08:28;101986.91;;;-9.12;91.46
22440;BME280;11387;51.612;7.210;2022-12-18T04:10:57;101982.47;;;-9.02;91.57
22440;BME280;11387;51.612;7.210;2022-12-18T04:13:27;101981.91;;;-9.06;91.51
22440;BME280;11387;51.612;7.210;2022-12-18T04:15:56;101988.31;;;-9.08;90.99
22440;BME280;11387;51.612;7.210;2022-12-18T04:18:27;101988.19;;;-9.07;91.37
22440;BME280;11387;51.612;7.210;2022-12-18T04:20:55;101986.66;;;-9.09;91.52
22440;BME280;11387;51.612;7.210;2022-12-18T04:23:23;101977.28;;;-9.13;91.17
22440;BME280;11387;51.612;7.210;2022-12-18T04:25:52;101974.78;;;-9.25;91.20
22440;BME280;11387;51.612;7.210;2022-12-18T04:28:20;101989.97;;;-9.27;91.18
22440;BME280;11387;51.612;7.210;2022-12-18T04:30:48;101988.56;;;-9.31;91.68
22440;BME280;11387;51.612;7.210;2022-12-18T04:33:17;101979.94;;;-9.23;91.76
22440;BME280;11387;51.612;7.210;2022-12-18T04:35:47;101976.91;;;-9.19;91.88
22440;BME280;11387;51.612;7.210;2022-12-18T04:38:15;101980.81;;;-9.03;92.35
22440;BME280;11387;51.612;7.210;2022-12-18T04:40:43;101984.72;;;-8.98;92.61
22440;BME280;11387;51.612;7.210;2022-12-18T04:43:12;101976.91;;;-8.80;92.34
22440;BME280;11387;51.612;7.210;2022-12-18T04:45:40;101981.50;;;-8.82;92.49
22440;BME280;11387;51.612;7.210;2022-12-18T04:48:08;101987.66;;;-8.72;92.26
22440;BME280;11387;51.612;7.210;2022-12-18T04:50:37;101986.13;;;-8.65;92.14
22440;BME280;11387;51.612;7.210;2022-12-18T04:53:08;101990.31;;;-8.62;92.36
22440;BME280;11387;51.612;7.210;2022-12-18T04:55:36;101982.50;;;-8.64;91.93
22440;BME280;11387;51.612;7.210;2022-12-18T04:58:05;101972.72;;;-8.63;92.38
22440;BME280;11387;51.612;7.210;2022-12-18T05:00:33;101973.00;;;-8.66;91.85
22440;BME280;11387;51.612;7.210;2022-12-18T05:03:02;101969.94;;;-8.71;91.61
22440;BME280;11387;51.612;7.210;2022-12-18T05:05:31;101964.06;;;-8.85;91.32
22440;BME280;11387;51.612;7.210;2022-12-18T05:08:00;101964.34;;;-8.78;92.06
22440;BME280;11387;51.612;7.210;2022-12-18T05:10:30;101947.31;;;-8.75;91.43
22440;BME280;11387;51.612;7.210;2022-12-18T05:13:04;101945.66;;;-8.67;91.95
22440;BME280;11387;51.612;7.210;2022-12-18T05:15:32;101955.09;;;-8.55;92.20
22440;BME280;11387;51.612;7.210;2022-12-18T05:18:01;101951.88;;;-8.39;92.16
22440;BME280;11387;51.612;7.210;2022-12-18T05:20:30;101946.34;;;-8.18;91.63
22440;BME280;11387;51.612;7.210;2022-12-18T05:22:59;101944.97;;;-8.22;91.64
22440;BME280;11387;51.612;7.210;2022-12-18T05:25:27;101948.03;;;-8.17;91.27
22440;BME280;11387;51.612;7.210;2022-12-18T05:27:57;101950.50;;;-8.06;91.28
22440;BME280;11387;51.612;7.210;2022-12-18T05:30:26;101944.91;;;-8.03;91.21
22440;BME280;11387;51.612;7.210;2022-12-18T05:32:54;101945.91;;;-8.04;90.93
22440;BME280;11387;51.612;7.210;2022-12-18T05:35:22;101938.63;;;-8.02;90.30
22440;BME280;11387;51.612;7.210;2022-12-18T05:37:51;101939.31;;;-8.00;90.29
22440;BME280;11387;51.612;7.210;2022-12-18T05:40:19;101943.53;;;-8.07;90.57
22440;BME280;11387;51.612;7.210;2022-12-18T05:42:47;101949.41;;;-8.13;90.43
22440;BME280;11387;51.612;7.210;2022-12-18T05:45:17;101949.97;;;-8.19;90.27
22440;BME280;11387;51.612;7.210;2022-12-18T05:47:45;101953.38;;;-8.27;90.26
22440;BME280;11387;51.612;7.210;2022-12-18T05:50:14;101964.88;;;-8.36;90.64
22440;BME280;11387;51.612;7.210;2022-12-18T05:52:42;101972.69;;;-8.44;90.94
22440;BME280;11387;51.612;7.210;2022-12-18T05:55:10;101971.59;;;-8.41;90.82
22440;BME280;11387;51.612;7.210;2022-12-18T05:57:39;101975.13;;;-8.23;91.16
22440;BME280;11387;51.612;7.210;2022-12-18T06:00:07;101977.09;;;-8.25;91.30
22440;BME280;11387;51.612;7.210;2022-12-18T06:02:37;101967.06;;;-8.31;90.79
22440;BME280;11387;51.612;7.210;2022-12-18T06:05:06;101980.72;;;-8.17;90.99
22440;BME280;11387;51.612;7.210;2022-12-18T06:07:34;101971.34;;;-8.11;91.57
22440;BME280;11387;51.612;7.210;2022-12-18T06:10:03;101977.56;;;-7.93;91.17
22440;BME280;11387;51.612;7.210;2022-12-18T06:12:31;101976.72;;;-7.84;90.93
22440;BME280;11387;51.612;7.210;2022-12-18T06:15:00;101991.81;;;-7.84;90.80
22440;BME280;11387;51.612;7.210;2022-12-18T06:17:28;101990.81;;;-7.83;90.04
22440;BME280;11387;51.612;7.210;2022-12-18T06:19:59;101995.16;;;-7.82;89.92
22440;BME280;11387;51.612;7.210;2022-12-18T06:22:28;102007.25;;;-7.97;89.82
22440;BME280;11387;51.612;7.210;2022-12-18T06:24:58;102013.13;;;-8.13;89.68
22440;BME280;11387;51.612;7.210;2022-12-18T06:27:27;102017.03;;;-8.17;89.12
22440;BME280;11387;51.612;7.210;2022-12-18T06:29:55;102018.75;;;-8.26;89.68
22440;BME280;11387;51.612;7.210;2022-12-18T06:32:24;102019.06;;;-8.38;89.71
22440;BME280;11387;51.612;7.210;2022-12-18T06:34:52;102010.81;;;-8.35;89.11
22440;BME280;11387;51.612;7.210;2022-12-18T06:37:23;102009.28;;;-8.47;89.13
22440;BME280;11387;51.612;7.210;2022-12-18T06:39:53;102011.25;;;-8.50;90.04
22440;BME280;11387;51.612;7.210;2022-12-18T06:42:21;102008.47;;;-8.58;90.00
22440;BME280;11387;51.612;7.210;2022-12-18T06:44:49;102008.88;;;-8.72;89.83
22440;BME280;11387;51.612;7.210;2022-12-18T06:47:18;102006.22;;;-8.72;89.87
22440;BME280;11387;51.612;7.210;2022-12-18T06:49:47;102000.91;;;-8.81;89.70
22440;BME280;11387;51.612;7.210;2022-12-18T06:52:16;102002.03;;;-8.84;89.74
22440;BME280;11387;51.612;7.210;2022-12-18T06:54:46;101987.78;;;-8.83;89.96
22440;BME280;11387;51.612;7.210;2022-12-18T06:57:15;101986.41;;;-8.87;89.79
22440;BME280;11387;51.612;7.210;2022-12-18T06:59:44;101980.53;;;-8.81;90.70
22440;BME280;11387;51.612;7.210;2022-12-18T07:02:12;101977.47;;;-8.86;90.33
22440;BME280;11387;51.612;7.210;2022-12-18T07:04:41;101976.63;;;-8.96;90.81
22440;BME280;11387;51.612;7.210;2022-12-18T07:07:09;101975.22;;;-9.00;90.84
22440;BME280;11387;51.612;7.210;2022-12-18T07:09:37;101979.28;;;-8.96;91.15
22440;BME280;11387;51.612;7.210;2022-12-18T07:12:07;101975.25;;;-8.91;91.12
22440;BME280;11387;51.612;7.210;2022-12-18T07:14:35;101966.19;;;-8.88;91.79
22440;BME280;11387;51.612;7.210;2022-12-18T07:17:03;101967.28;;;-8.81;91.84
22440;BME280;11387;51.612;7.210;2022-12-18T07:19:32;101972.56;;;-8.81;92.02
22440;BME280;11387;51.612;7.210;2022-12-18T07:22:01;101960.16;;;-8.80;91.97
22440;BME280;11387;51.612;7.210;2022-12-18T07:24:31;101957.38;;;-8.69;92.26
22440;BME280;11387;51.612;7.210;2022-12-18T07:27:00;101964.06;;;-8.65;92.41
22440;BME280;11387;51.612;7.210;2022-12-18T07:29:30;101970.50;;;-8.58;92.06
22440;BME280;11387;51.612;7.210;2022-12-18T07:31:58;101961.53;;;-8.47;92.22
22440;BME280;11387;51.612;7.210;2022-12-18T07:34:26;101965.00;;;-8.37;92.34
22440;BME280;11387;51.612;7.210;2022-12-18T07:36:55;101958.31;;;-8.41;92.56
22440;BME280;11387;51.612;7.210;2022-12-18T07:39:23;101957.06;;;-8.37;92.76
22440;BME280;11387;51.612;7.210;2022-12-18T07:41:51;101959.91;;;-8.21;92.11
22440;BME280;11387;51.612;7.210;2022-12-18T07:44:35;101960.59;;;-8.09;92.75
22440;BME280;11387;51.612;7.210;2022-12-18T07:47:04;101952.75;;;-8.01;92.85
22440;BME280;11387;51.612;7.210;2022-12-18T07:49:38;101945.81;;;-7.85;93.19
22440;BME280;11387;51.612;7.210;2022-12-18T07:52:06;101940.03;;;-7.70;92.90
22440;BME280;11387;51.612;7.210;2022-12-18T07:54:35;101949.16;;;-7.55;92.95
22440;BME280;11387;51.612;7.210;2022-12-18T07:57:03;101957.19;;;-7.37;92.62
22440;BME280;11387;51.612;7.210;2022-12-18T07:59:53;101959.13;;;-7.12;92.88
22440;BME280;11387;51.612;7.210;2022-12-18T08:02:21;101962.47;;;-6.92;92.72
22440;BME280;11387;51.612;7.210;2022-12-18T08:04:49;101960.03;;;-6.68;92.45
22440;BME280;11387;51.612;7.210;2022-12-18T08:07:18;101961.09;;;-6.43;91.71
22440;BME280;11387;51.612;7.210;2022-12-18T08:09:46;101945.06;;;-6.25;90.99
22440;BME280;11387;51.612;7.210;2022-12-18T08:12:14;101964.13;;;-6.12;90.24
22440;BME280;11387;51.612;7.210;2022-12-18T08:14:44;101965.91;;;-5.95;89.70
22440;BME280;11387;51.612;7.210;2022-12-18T08:17:13;101961.94;;;-5.83;88.59
22440;BME280;11387;51.612;7.210;2022-12-18T08:19:42;101961.06;;;-5.57;85.52
22440;BME280;11387;51.612;7.210;2022-12-18T08:22:10;101950.91;;;-5.46;84.39
22440;BME280;11387;51.612;7.210;2022-12-18T08:24:38;101943.84;;;-5.13;82.99
22440;BME280;11387;51.612;7.210;2022-12-18T08:27:06;101932.06;;;-4.94;82.19
22440;BME280;11387;51.612;7.210;2022-12-18T08:29:55;101918.03;;;-4.71;82.00
22440;BME280;11387;51.612;7.210;2022-12-18T08:32:25;101916.38;;;-4.48;80.70
22440;BME280;11387;51.612;7.210;2022-12-18T08:34:53;101917.88;;;-4.29;78.34
22440;BME280;11387;51.612;7.210;2022-12-18T08:37:21;101921.63;;;-3.99;76.43
22440;BME280;11387;51.612;7.210;2022-12-18T08:39:50;101908.09;;;-3.59;75.58
22440;BME280;11387;51.612;7.210;2022-12-18T08:42:18;101899.13;;;-2.66;73.36
22440;BME280;11387;51.612;7.210;2022-12-18T08:45:06;101904.06;;;-1.38;65.97
22440;BME280;11387;51.612;7.210;2022-12-18T08:47:36;101899.69;;;-0.60;62.25
22440;BME280;11387;51.612;7.210;2022-12-18T08:50:05;101894.28;;;-0.66;62.00
22440;BME280;11387;51.612;7.210;2022-12-18T08:52:33;101897.16;;;-0.68;61.33
22440;BME280;11387;51.612;7.210;2022-12-18T08:55:02;101907.34;;;-0.36;60.72
22440;BME280;11387;51.612;7.210;2022-12-18T08:57:30;101898.81;;;0.23;58.94
22440;BME280;11387;51.612;7.210;2022-12-18T08:59:58;101900.59;;;1.18;57.14
22440;BME280;11387;51.612;7.210;2022-12-18T09:02:27;101898.72;;;2.56;53.65
22440;BME280;11387;51.612;7.210;2022-12-18T09:04:57;101890.41;;;3.27;49.65
22440;BME280;11387;51.612;7.210;2022-12-18T09:07:26;101875.38;;;3.99;47.81
22440;BME280;11387;51.612;7.210;2022-12-18T09:09:54;101884.75;;;4.58;45.88
22440;BME280;11387;51.612;7.210;2022-12-18T09:12:22;101880.28;;;4.09;45.57
22440;BME280;11387;51.612;7.210;2022-12-18T09:14:50;101881.00;;;4.22;44.94
22440;BME280;11387;51.612;7.210;2022-12-18T09:17:19;101882.34;;;4.13;45.03
22440;BME280;11387;51.612;7.210;2022-12-18T09:19:47;101875.44;;;2.03;49.27
22440;BME280;11387;51.612;7.210;2022-12-18T09:22:18;101860.06;;;0.72;52.31
22440;BME280;11387;51.612;7.210;2022-12-18T09:24:48;101851.34;;;0.09;54.85
22440;BME280;11387;51.612;7.210;2022-12-18T09:27:17;101857.44;;;-0.10;55.98
22440;BME280;11387;51.612;7.210;2022-12-18T09:29:46;101865.75;;;-0.05;56.05
22440;BME280;11387;51.612;7.210;2022-12-18T09:32:16;101869.63;;;0.20;55.65
22440;BME280;11387;51.612;7.210;2022-12-18T09:34:49;101862.00;;;0.91;53.43
22440;BME280;11387;51.612;7.210;2022-12-18T09:37:20;101852.19;;;1.96;51.25
22440;BME280;11387;51.612;7.210;2022-12-18T09:39:52;101851.41;;;3.84;46.08
22440;BME280;11387;51.612;7.210;2022-12-18T09:42:25;101855.00;;;5.23;43.35
22440;BME280;11387;51.612;7.210;2022-12-18T09:44:53;101869.47;;;5.70;41.67
22440;BME280;11387;51.612;7.210;2022-12-18T09:47:24;101862.41;;;5.81;41.69
22440;BME280;11387;51.612;7.210;2022-12-18T09:49:56;101867.69;;;5.75;42.24
22440;BME280;11387;51.612;7.210;2022-12-18T09:52:28;101857.53;;;4.64;42.65
22440;BME280;11387;51.612;7.210;2022-12-18T09:55:01;101879.41;;;5.23;42.41
22440;BME280;11387;51.612;7.210;2022-12-18T09:57:31;101873.75;;;6.01;41.53
22440;BME280;11387;51.612;7.210;2022-12-18T10:00:03;101873.81;;;5.83;40.26
22440;BME280;11387;51.612;7.210;2022-12-18T10:02:36;101871.69;;;5.38;40.61
22440;BME280;11387;51.612;7.210;2022-12-18T10:05:16;101869.94;;;5.67;41.35
22440;BME280;11387;51.612;7.210;2022-12-18T10:07:53;101865.50;;;5.19;41.73
22440;BME280;11387;51.612;7.210;2022-12-18T10:10:33;101869.44;;;4.93;42.79
22440;BME280;11387;51.612;7.210;2022-12-18T10:13:08;101843.34;;;5.34;42.68
22440;BME280;11387;51.612;7.210;2022-12-18T10:15:45;101843.94;;;5.59;42.38
22440;BME280;11387;51.612;7.210;2022-12-18T10:18:27;101834.53;;;5.50;42.32
22440;BME280;11387;51.612;7.210;2022-12-18T10:21:03;101834.69;;;4.72;43.76
22440;BME280;11387;51.612;7.210;2022-12-18T10:23:43;101838.25;;;4.24;45.26
22440;BME280;11387;51.612;7.210;2022-12-18T10:26:22;101834.03;;;3.49;46.49
22440;BME280;11387;51.612;7.210;2022-12-18T10:28:57;101819.31;;;2.63;48.98
22440;BME280;11387;51.612;7.210;2022-12-18T10:31:38;101807.00;;;1.72;51.33
22440;BME280;11387;51.612;7.210;2022-12-18T10:34:11;101809.97;;;1.37;53.08
22440;BME280;11387;51.612;7.210;2022-12-18T10:36:45;101804.78;;;1.22;53.22
22440;BME280;11387;51.612;7.210;2022-12-18T10:39:22;101788.06;;;1.85;52.15
22440;BME280;11387;51.612;7.210;2022-12-18T10:42:08;101790.19;;;1.83;52.50
22440;BME280;11387;51.612;7.210;2022-12-18T10:44:46;101785.75;;;1.95;52.04
22440;BME280;11387;51.612;7.210;2022-12-18T10:47:34;101790.47;;;2.13;51.25
22440;BME280;11387;51.612;7.210;2022-12-18T10:50:10;101789.25;;;2.47;50.68
22440;BME280;11387;51.612;7.210;2022-12-18T10:52:57;101789.72;;;2.75;51.19
22440;BME280;11387;51.612;7.210;2022-12-18T10:55:33;101778.81;;;2.88;50.56
22440;BME280;11387;51.612;7.210;2022-12-18T10:58:20;101778.63;;;2.83;49.80
22440;BME280;11387;51.612;7.210;2022-12-18T11:01:04;101784.31;;;2.75;50.52
22440;BME280;11387;51.612;7.210;2022-12-18T11:03:33;101779.66;;;2.82;50.52
22440;BME280;11387;51.612;7.210;2022-12-18T11:06:07;101772.09;;;2.34;51.14
22440;BME280;11387;51.612;7.210;2022-12-18T11:08:36;101762.47;;;2.07;52.63
22440;BME280;11387;51.612;7.210;2022-12-18T11:11:15;101771.47;;;1.88;53.41
22440;BME280;11387;51.612;7.210;2022-12-18T11:13:49;101766.19;;;1.42;54.91
22440;BME280;11387;51.612;7.210;2022-12-18T11:16:20;101755.34;;;1.61;54.24
22440;BME280;11387;51.612;7.210;2022-12-18T11:18:48;101757.69;;;1.38;54.36
22440;BME280;11387;51.612;7.210;2022-12-18T11:21:16;101756.44;;;1.34;55.73
22440;BME280;11387;51.612;7.210;2022-12-18T11:23:46;101745.47;;;1.42;55.52
22440;BME280;11387;51.612;7.210;2022-12-18T11:26:16;101746.50;;;1.48;56.32
22440;BME280;11387;51.612;7.210;2022-12-18T11:28:46;101741.34;;;1.91;55.49
22440;BME280;11387;51.612;7.210;2022-12-18T11:31:19;101745.03;;;2.10;55.40
22440;BME280;11387;51.612;7.210;2022-12-18T11:33:51;101740.72;;;1.89;55.45
22440;BME280;11387;51.612;7.210;2022-12-18T11:36:42;101733.28;;;1.84;56.30
22440;BME280;11387;51.612;7.210;2022-12-18T11:39:12;101730.84;;;1.69;56.39
22440;BME280;11387;51.612;7.210;2022-12-18T11:41:47;101721.81;;;1.51;56.57
22440;BME280;11387;51.612;7.210;2022-12-18T11:44:35;101708.19;;;1.19;57.33
22440;BME280;11387;51.612;7.210;2022-12-18T11:47:08;101709.25;;;0.85;58.71
22440;BME280;11387;51.612;7.210;2022-12-18T11:49:39;101702.00;;;0.73;59.24
22440;BME280;11387;51.612;7.210;2022-12-18T11:52:09;101695.31;;;0.36;60.86
22440;BME280;11387;51.612;7.210;2022-12-18T11:54:41;101687.22;;;0.09;61.95
22440;BME280;11387;51.612;7.210;2022-12-18T11:57:14;101694.06;;;0.18;61.67
22440;BME280;11387;51.612;7.210;2022-12-18T11:59:47;101694.91;;;0.39;62.21
22440;BME280;11387;51.612;7.210;2022-12-18T12:02:25;101681.25;;;0.33;61.62
22440;BME280;11387;51.612;7.210;2022-12-18T12:05:04;101685.66;;;0.61;61.78
22440;BME280;11387;51.612;7.210;2022-12-18T12:07:42;101681.28;;;0.60;61.85
22440;BME280;11387;51.612;7.210;2022-12-18T12:10:20;101685.00;;;0.72;61.60
22440;BME280;11387;51.612;7.210;2022-12-18T12:12:55;101678.78;;;0.65;61.41
22440;BME280;11387;51.612;7.210;2022-12-18T12:15:31;101690.38;;;0.72;61.32
22440;BME280;11387;51.612;7.210;2022-12-18T12:18:05;101677.97;;;0.84;61.21
22440;BME280;11387;51.612;7.210;2022-12-18T12:20:42;101677.34;;;0.69;61.59
22440;BME280;11387;51.612;7.210;2022-12-18T12:23:14;101670.50;;;0.73;61.50
22440;BME280;11387;51.612;7.210;2022-12-18T12:25:52;101678.78;;;0.72;61.13
22440;BME280;11387;51.612;7.210;2022-12-18T12:28:28;101664.28;;;0.40;62.55
22440;BME280;11387;51.612;7.210;2022-12-18T12:31:01;101667.38;;;0.43;62.41
22440;BME280;11387;51.612;7.210;2022-12-18T12:33:35;101660.56;;;0.54;62.72
22440;BME280;11387;51.612;7.210;2022-12-18T12:36:08;101658.91;;;0.66;62.09
22440;BME280;11387;51.612;7.210;2022-12-18T12:38:41;101652.72;;;0.59;62.67
22440;BME280;11387;51.612;7.210;2022-12-18T12:41:18;101656.19;;;0.66;62.48
22440;BME280;11387;51.612;7.210;2022-12-18T12:44:07;101652.88;;;0.71;62.42
22440;BME280;11387;51.612;7.210;2022-12-18T12:46:37;101643.78;;;0.65;62.91
22440;BME280;11387;51.612;7.210;2022-12-18T12:49:09;101637.56;;;0.64;62.33
22440;BME280;11387;51.612;7.210;2022-12-18T12:51:39;101642.75;;;0.66;62.61
22440;BME280;11387;51.612;7.210;2022-12-18T12:54:11;101643.34;;;0.81;63.19
22440;BME280;11387;51.612;7.210;2022-12-18T12:56:44;101648.34;;;0.71;62.94
22440;BME280;11387;51.612;7.210;2022-12-18T12:59:21;101649.38;;;0.70;63.77
22440;BME280;11387;51.612;7.210;2022-12-18T13:01:52;101654.13;;;0.68;63.19
22440;BME280;11387;51.612;7.210;2022-12-18T13:04:23;101652.69;;;0.72;62.73
22440;BME280;11387;51.612;7.210;2022-12-18T13:06:58;101641.50;;;0.49;63.26
22440;BME280;11387;51.612;7.210;2022-12-18T13:09:29;101637.56;;;0.31;64.03
22440;BME280;11387;51.612;7.210;2022-12-18T13:12:02;101634.44;;;0.15;65.03
22440;BME280;11387;51.612;7.210;2022-12-18T13:14:50;101628.66;;;-0.02;65.71
22440;BME280;11387;51.612;7.210;2022-12-18T13:20:07;101633.13;;;-0.22;66.87